createdAt,value
2022-11-17T00:00:48.159Z,22.75
2022-11-17T00:03:18.022Z,22.00
2022-11-17T00:05:46.849Z,20.33
2022-11-17T00:08:16.015Z,21.00
2022-11-17T00:10:44.205Z,21.00
2022-11-17T00:13:31.582Z,23.25
2022-11-17T00:15:59.828Z,23.25
2022-11-17T00:18:47.115Z,22.67
2022-11-17T00:21:19.193Z,22.67
2022-11-17T00:23:49.213Z,21.67
2022-11-17T00:26:21.977Z,23.25
2022-11-17T00:28:55.236Z,22.00
2022-11-17T00:31:42.688Z,21.75
2022-11-17T00:34:17.755Z,22.25
2022-11-17T00:36:56.308Z,22.75
2022-11-17T00:39:25.694Z,22.00
2022-11-17T00:41:54.036Z,21.50
2022-11-17T00:44:22.535Z,21.00
2022-11-17T00:46:50.773Z,23.00
2022-11-17T00:49:25.412Z,23.33
2022-11-17T00:51:55.308Z,21.50
2022-11-17T00:54:24.808Z,21.50
2022-11-17T00:56:53.096Z,25.25
2022-11-17T00:59:22.725Z,24.25
2022-11-17T01:01:51.036Z,22.50
2022-11-17T01:04:21.217Z,22.50
2022-11-17T01:06:50.139Z,23.50
2022-11-17T01:09:24.449Z,23.00
2022-11-17T01:11:54.676Z,22.00
2022-11-17T01:14:25.734Z,26.00
2022-11-17T01:16:55.096Z,25.75
2022-11-17T01:19:24.575Z,24.00
2022-11-17T01:21:52.857Z,21.50
2022-11-17T01:24:21.378Z,24.00
2022-11-17T01:26:51.987Z,23.00
2022-11-17T01:29:21.724Z,22.50
2022-11-17T01:31:51.701Z,25.50
2022-11-17T01:34:20.256Z,24.50
2022-11-17T01:37:22.249Z,24.00
2022-11-17T01:39:51.323Z,22.00
2022-11-17T01:42:22.047Z,23.00
2022-11-17T01:45:20.425Z,22.75
2022-11-17T01:47:53.925Z,24.33
2022-11-17T01:50:32.195Z,24.25
2022-11-17T01:53:03.559Z,22.00
2022-11-17T01:55:35.876Z,23.00
2022-11-17T01:58:09.426Z,23.00
2022-11-17T02:00:38.008Z,23.00
2022-11-17T02:03:07.538Z,24.33
2022-11-17T02:06:14.062Z,23.50
2022-11-17T02:08:46.857Z,23.25
2022-11-17T02:11:18.997Z,23.00
2022-11-17T02:13:47.555Z,21.67
2022-11-17T02:16:18.206Z,21.75
2022-11-17T02:18:47.526Z,23.25
2022-11-17T02:22:07.783Z,23.33
2022-11-17T02:24:49.397Z,23.00
2022-11-17T02:27:59.239Z,22.75
2022-11-17T02:30:49.554Z,23.50
2022-11-17T02:33:34.561Z,23.67
2022-11-17T02:36:08.957Z,23.00
2022-11-17T02:38:52.414Z,24.00
2022-11-17T02:41:47.337Z,23.00
2022-11-17T02:44:24.814Z,24.00
2022-11-17T02:47:06.683Z,23.33
2022-11-17T02:49:57.613Z,24.00
2022-11-17T02:52:27.555Z,22.00
2022-11-17T02:55:07.323Z,22.00
2022-11-17T02:57:38.484Z,24.00
2022-11-17T03:00:12.455Z,21.50
2022-11-17T03:03:08.224Z,22.75
2022-11-17T03:05:48.603Z,22.00
2022-11-17T03:08:59.374Z,23.00
2022-11-17T03:11:37.425Z,22.50
2022-11-17T03:14:10.411Z,21.75
2022-11-17T03:16:48.763Z,23.00
2022-11-17T03:19:42.224Z,22.75
2022-11-17T03:22:36.262Z,23.33
2022-11-17T03:25:07.793Z,22.00
2022-11-17T03:27:39.335Z,20.00
2022-11-17T03:30:09.793Z,20.50
2022-11-17T03:32:40.802Z,21.50
2022-11-17T03:35:15.433Z,20.25
2022-11-17T03:37:50.053Z,21.33
2022-11-17T03:40:21.332Z,21.00
2022-11-17T03:42:54.422Z,21.33
2022-11-17T03:45:29.182Z,20.25
2022-11-17T03:48:26.276Z,21.75
2022-11-17T03:51:04.953Z,21.00
2022-11-17T03:53:34.335Z,21.75
2022-11-17T03:56:48.073Z,21.00
2022-11-17T03:59:43.318Z,20.25
2022-11-17T04:02:21.847Z,21.00
2022-11-17T04:05:05.759Z,22.25
2022-11-17T04:07:40.492Z,21.50
2022-11-17T04:10:11.687Z,19.00
2022-11-17T04:12:59.054Z,19.67
2022-11-17T04:15:46.712Z,18.75
2022-11-17T04:18:15.493Z,22.00
2022-11-17T04:20:44.063Z,20.75
2022-11-17T04:23:14.545Z,21.50
2022-11-17T04:26:09.373Z,20.33
2022-11-17T04:28:41.776Z,21.33
2022-11-17T04:31:18.213Z,20.75
2022-11-17T04:33:52.787Z,20.00
2022-11-17T04:36:26.674Z,20.25
2022-11-17T04:38:57.411Z,21.25
2022-11-17T04:41:46.352Z,20.50
2022-11-17T04:44:16.818Z,19.25
2022-11-17T04:46:46.260Z,19.50
2022-11-17T04:49:18.535Z,19.50
2022-11-17T04:51:47.873Z,19.25
2022-11-17T04:54:19.658Z,20.50
2022-11-17T04:56:51.230Z,19.50
2022-11-17T04:59:21.220Z,20.50
2022-11-17T05:01:49.579Z,22.00
2022-11-17T05:04:40.500Z,20.33
2022-11-17T05:07:09.408Z,20.50
2022-11-17T05:09:37.943Z,20.50
2022-11-17T05:12:24.959Z,19.25
2022-11-17T05:14:53.450Z,21.75
2022-11-17T05:17:21.878Z,19.75
2022-11-17T05:19:50.457Z,21.67
2022-11-17T05:22:42.341Z,21.00
2022-11-17T05:25:11.182Z,19.25
2022-11-17T05:27:39.256Z,19.00
2022-11-17T05:30:09.095Z,19.00
2022-11-17T05:32:37.307Z,19.00
2022-11-17T05:35:06.534Z,21.75
2022-11-17T05:37:35.236Z,20.00
2022-11-17T05:40:05.303Z,21.75
2022-11-17T05:42:34.616Z,20.33
2022-11-17T05:45:02.987Z,20.25
2022-11-17T05:47:31.156Z,20.33
2022-11-17T05:49:59.641Z,20.50
2022-11-17T05:52:27.776Z,22.00
2022-11-17T05:54:56.204Z,22.00
2022-11-17T05:57:29.298Z,20.50
2022-11-17T06:00:04.711Z,19.00
2022-11-17T06:03:02.639Z,20.67
2022-11-17T06:05:33.398Z,20.50
2022-11-17T06:08:02.117Z,22.33
2022-11-17T06:10:30.309Z,21.67
2022-11-17T06:12:58.809Z,20.00
2022-11-17T06:15:27.431Z,22.00
2022-11-17T06:18:05.883Z,21.50
2022-11-17T06:20:42.196Z,20.50
2022-11-17T06:23:12.038Z,20.00
2022-11-17T06:25:41.317Z,21.75
2022-11-17T06:28:12.178Z,20.25
2022-11-17T06:30:40.989Z,21.00
2022-11-17T06:33:12.936Z,20.75
2022-11-17T06:35:42.137Z,21.50
2022-11-17T06:38:10.709Z,19.33
2022-11-17T06:40:38.897Z,21.67
2022-11-17T06:43:09.850Z,21.00
2022-11-17T06:45:42.360Z,20.75
2022-11-17T06:48:14.479Z,21.33
2022-11-17T06:50:43.161Z,19.75
2022-11-17T06:53:12.906Z,20.00
2022-11-17T06:55:42.071Z,22.00
2022-11-17T06:58:13.641Z,18.25
2022-11-17T07:00:42.409Z,22.50
2022-11-17T07:03:11.054Z,22.75
2022-11-17T07:05:40.787Z,21.33
2022-11-17T07:08:10.012Z,21.50
2022-11-17T07:10:38.392Z,22.67
2022-11-17T07:13:07.253Z,22.00
2022-11-17T07:15:35.769Z,22.00
2022-11-17T07:18:04.516Z,21.67
2022-11-17T07:20:32.724Z,21.75
2022-11-17T07:23:01.313Z,22.75
2022-11-17T07:25:29.508Z,22.75
2022-11-17T07:28:00.085Z,24.00
2022-11-17T07:30:28.540Z,23.00
2022-11-17T07:33:00.404Z,25.33
2022-11-17T07:35:30.069Z,25.50
2022-11-17T07:38:01.529Z,24.50
2022-11-17T07:40:31.584Z,23.25
2022-11-17T07:43:01.420Z,24.25
2022-11-17T07:45:32.352Z,24.50
2022-11-17T07:48:02.883Z,24.75
2022-11-17T07:50:31.808Z,23.00
2022-11-17T07:53:01.450Z,22.75
2022-11-17T07:55:29.765Z,24.50
2022-11-17T07:57:59.706Z,24.25
2022-11-17T08:00:30.087Z,23.00
2022-11-17T08:03:05.587Z,25.00
2022-11-17T08:05:43.271Z,22.33
2022-11-17T08:08:13.863Z,26.50
2022-11-17T08:10:43.602Z,23.25
2022-11-17T08:13:13.335Z,24.50
2022-11-17T08:15:41.627Z,23.33
2022-11-17T08:18:11.472Z,23.00
2022-11-17T08:20:39.750Z,22.50
2022-11-17T08:23:08.358Z,24.75
2022-11-17T08:25:36.711Z,24.25
2022-11-17T08:28:05.254Z,24.00
2022-11-17T08:30:36.414Z,25.00
2022-11-17T08:33:05.310Z,26.00
2022-11-17T08:35:37.419Z,25.67
2022-11-17T08:38:07.054Z,28.00
2022-11-17T08:40:35.537Z,24.00
2022-11-17T08:43:04.333Z,25.00
2022-11-17T08:45:32.504Z,25.75
2022-11-17T08:48:00.982Z,25.00
2022-11-17T08:50:29.186Z,24.50
2022-11-17T08:52:57.657Z,24.33
2022-11-17T08:55:26.548Z,26.50
2022-11-17T08:57:55.714Z,25.00
2022-11-17T09:00:24.483Z,25.75
2022-11-17T09:02:53.127Z,24.75
2022-11-17T09:05:21.344Z,24.67
2022-11-17T09:07:50.334Z,25.25
2022-11-17T09:10:18.644Z,26.50
2022-11-17T09:12:47.334Z,24.00
2022-11-17T09:15:15.691Z,25.75
2022-11-17T09:17:47.874Z,24.00
2022-11-17T09:20:17.426Z,25.50
2022-11-17T09:22:46.648Z,25.75
2022-11-17T09:25:14.974Z,28.00
2022-11-17T09:27:43.702Z,25.75
2022-11-17T09:30:12.116Z,30.25
2022-11-17T09:32:40.545Z,31.00
2022-11-17T09:35:10.147Z,27.50
2022-11-17T09:37:38.807Z,28.75
2022-11-17T09:40:07.891Z,34.75
2022-11-17T09:42:40.736Z,29.75
2022-11-17T09:45:18.252Z,31.00
2022-11-17T09:47:46.676Z,33.00
2022-11-17T09:50:31.955Z,29.75
2022-11-17T09:53:12.391Z,32.25
2022-11-17T09:55:43.612Z,32.50
2022-11-17T09:58:20.134Z,31.50
2022-11-17T10:00:53.305Z,33.50
2022-11-17T10:03:33.433Z,32.50
2022-11-17T10:06:06.368Z,29.25
2022-11-17T10:09:04.467Z,30.50
2022-11-17T10:11:36.373Z,32.25
2022-11-17T10:14:14.051Z,29.50
2022-11-17T10:16:56.425Z,31.50
2022-11-17T10:19:32.835Z,32.25
2022-11-17T10:22:02.106Z,30.75
2022-11-17T10:24:47.074Z,30.67
2022-11-17T10:27:18.066Z,29.50
2022-11-17T10:30:00.710Z,31.00
2022-11-17T10:32:31.593Z,29.50
2022-11-17T10:35:20.103Z,29.50
2022-11-17T10:37:55.746Z,28.75
2022-11-17T10:40:30.691Z,30.00
2022-11-17T10:43:13.850Z,29.50
2022-11-17T10:45:54.142Z,28.00
2022-11-17T10:48:36.724Z,28.75
2022-11-17T10:51:22.473Z,28.25
2022-11-17T10:54:15.283Z,31.25
2022-11-17T10:56:53.325Z,28.25
2022-11-17T10:59:28.014Z,29.75
2022-11-17T11:01:58.377Z,28.33
2022-11-17T11:04:41.378Z,30.25
2022-11-17T11:07:22.011Z,28.75
2022-11-17T11:09:56.509Z,28.00
2022-11-17T11:13:02.918Z,27.75
2022-11-17T11:15:53.666Z,26.50
2022-11-17T11:18:22.449Z,26.75
2022-11-17T11:21:05.655Z,29.50
2022-11-17T11:23:49.207Z,29.00
2022-11-17T11:26:20.625Z,31.00
2022-11-17T11:29:00.116Z,30.75
2022-11-17T11:31:42.197Z,27.00
2022-11-17T11:34:31.966Z,31.00
2022-11-17T11:37:03.147Z,28.67
2022-11-17T11:39:49.477Z,29.00
2022-11-17T11:42:48.604Z,26.50
2022-11-17T11:45:43.070Z,27.67
2022-11-17T11:48:17.674Z,27.25
2022-11-17T11:50:56.155Z,28.25
2022-11-17T11:53:46.498Z,30.00
2022-11-17T11:56:24.075Z,29.00
2022-11-17T11:59:07.665Z,29.67
2022-11-17T12:02:11.152Z,30.00
2022-11-17T12:04:59.134Z,30.75
2022-11-17T12:07:50.296Z,34.67
2022-11-17T12:10:43.144Z,31.50
2022-11-17T12:13:18.724Z,32.00
2022-11-17T12:15:47.234Z,31.00
2022-11-17T12:18:18.603Z,29.50
2022-11-17T12:21:12.283Z,33.25
2022-11-17T12:24:14.996Z,33.00
2022-11-17T12:26:43.894Z,31.50
2022-11-17T12:29:22.724Z,33.25
2022-11-17T12:31:59.225Z,33.50
2022-11-17T12:34:31.116Z,31.25
2022-11-17T12:37:14.922Z,34.25
2022-11-17T12:40:02.018Z,33.00
2022-11-17T12:42:32.354Z,32.75
2022-11-17T12:45:19.114Z,33.00
2022-11-17T12:47:59.507Z,33.00
2022-11-17T12:50:50.184Z,32.50
2022-11-17T12:53:20.766Z,35.25
2022-11-17T12:56:12.853Z,33.25
2022-11-17T12:59:11.236Z,33.50
2022-11-17T13:01:59.323Z,34.33
2022-11-17T13:04:48.979Z,33.00
2022-11-17T13:07:23.495Z,33.75
2022-11-17T13:09:54.624Z,35.00
2022-11-17T13:12:25.194Z,32.00
2022-11-17T13:14:59.181Z,32.25
2022-11-17T13:17:31.145Z,32.00
2022-11-17T13:20:24.134Z,35.50
2022-11-17T13:23:03.077Z,34.33
2022-11-17T13:25:31.314Z,32.50
2022-11-17T13:28:04.690Z,34.00
2022-11-17T13:30:33.934Z,32.50
2022-11-17T13:33:04.354Z,32.50
2022-11-17T13:35:35.265Z,33.50
2022-11-17T13:38:20.436Z,34.75
2022-11-17T13:40:51.166Z,32.00
2022-11-17T13:43:23.384Z,35.50
2022-11-17T13:45:53.521Z,32.50
2022-11-17T13:48:35.199Z,37.00
2022-11-17T13:51:39.381Z,33.00
2022-11-17T13:54:14.306Z,32.00
2022-11-17T13:57:01.943Z,34.33
2022-11-17T13:59:34.695Z,35.00
2022-11-17T14:02:21.053Z,33.33
2022-11-17T14:05:26.603Z,33.00
2022-11-17T14:08:00.274Z,35.75
2022-11-17T14:10:32.087Z,34.00
2022-11-17T14:13:03.544Z,34.75
2022-11-17T14:15:37.507Z,33.75
2022-11-17T14:18:28.785Z,35.25
2022-11-17T14:21:15.355Z,32.50
2022-11-17T14:23:45.194Z,36.50
2022-11-17T14:26:19.222Z,34.25
2022-11-17T14:28:49.463Z,33.00
2022-11-17T14:31:18.602Z,31.67
2022-11-17T14:33:46.970Z,34.00
2022-11-17T14:36:16.964Z,33.67
2022-11-17T14:38:45.963Z,33.00
2022-11-17T14:41:18.278Z,35.50
2022-11-17T14:43:47.672Z,35.00
2022-11-17T14:46:26.154Z,34.75
2022-11-17T14:48:55.959Z,33.50
2022-11-17T14:51:25.909Z,34.00
2022-11-17T14:53:54.830Z,32.50
2022-11-17T14:56:24.912Z,34.50
2022-11-17T14:58:56.186Z,34.25
2022-11-17T15:01:34.034Z,33.50
2022-11-17T15:04:27.321Z,32.50
2022-11-17T15:06:53.914Z,31.67
2022-11-17T15:09:23.495Z,34.75
2022-11-17T15:11:52.393Z,33.50
2022-11-17T15:14:20.713Z,35.33
2022-11-17T15:16:49.343Z,35.00
2022-11-17T15:19:17.683Z,33.00
2022-11-17T15:21:46.210Z,33.75
2022-11-17T15:24:14.783Z,31.75
2022-11-17T15:26:45.160Z,35.75
2022-11-17T15:29:17.861Z,35.50
2022-11-17T15:31:48.442Z,34.00
2022-11-17T15:34:20.269Z,34.75
2022-11-17T15:36:50.471Z,35.00
2022-11-17T15:39:19.119Z,35.75
2022-11-17T15:41:52.294Z,32.50
2022-11-17T15:44:20.743Z,31.33
2022-11-17T15:46:49.308Z,32.67
2022-11-17T15:49:17.983Z,31.33
2022-11-17T15:51:46.752Z,35.33
2022-11-17T15:54:20.325Z,33.33
2022-11-17T15:56:51.177Z,30.67
2022-11-17T15:59:19.897Z,29.50
2022-11-17T16:01:49.923Z,32.75
2022-11-17T16:04:19.352Z,29.75
2022-11-17T16:06:47.967Z,31.50
2022-11-17T16:09:17.376Z,30.33
2022-11-17T16:11:46.359Z,29.50
2022-11-17T16:14:15.342Z,28.00
2022-11-17T16:16:46.208Z,29.75
2022-11-17T16:19:14.702Z,28.50
2022-11-17T16:21:44.762Z,29.75
2022-11-17T16:24:13.155Z,29.75
2022-11-17T16:26:41.765Z,30.50
2022-11-17T16:29:10.145Z,30.00
2022-11-17T16:31:40.014Z,28.25
2022-11-17T16:34:12.942Z,31.50
2022-11-17T16:39:25.621Z,32.25
2022-11-17T16:41:55.851Z,33.50
2022-11-17T16:44:24.105Z,34.67
2022-11-17T16:46:53.754Z,35.00
2022-11-17T16:49:22.324Z,37.00
2022-11-17T16:51:52.727Z,35.00
2022-11-17T16:54:22.062Z,37.50
2022-11-17T16:56:50.519Z,37.00
2022-11-17T16:59:19.053Z,37.00
2022-11-17T17:01:47.924Z,36.67
2022-11-17T17:04:16.131Z,38.67
2022-11-17T17:06:46.077Z,39.00
2022-11-17T17:09:15.457Z,37.50
2022-11-17T17:11:44.281Z,39.00
2022-11-17T17:14:14.231Z,37.33
2022-11-17T17:16:43.586Z,37.25
2022-11-17T17:19:13.599Z,37.50
2022-11-17T17:21:43.428Z,35.25
2022-11-17T17:24:11.769Z,38.00
2022-11-17T17:26:40.871Z,35.00
2022-11-17T17:29:10.346Z,36.67
2022-11-17T17:31:40.639Z,38.50
2022-11-17T17:34:10.841Z,39.25
2022-11-17T17:36:40.320Z,39.50
2022-11-17T17:39:10.252Z,35.50
2022-11-17T17:41:41.224Z,38.33
2022-11-17T17:44:14.568Z,39.67
2022-11-17T17:46:43.178Z,36.75
2022-11-17T17:49:11.894Z,36.75
2022-11-17T17:51:44.291Z,38.00
2022-11-17T17:54:20.964Z,37.75
2022-11-17T17:56:49.591Z,36.50
2022-11-17T17:59:18.174Z,38.50
2022-11-17T18:01:48.287Z,32.67
2022-11-17T18:04:17.542Z,35.00
2022-11-17T18:06:48.413Z,38.75
2022-11-17T18:09:19.690Z,33.75
2022-11-17T18:11:50.818Z,36.00
2022-11-17T18:14:21.281Z,34.25
2022-11-17T18:16:50.755Z,38.25
2022-11-17T18:19:19.812Z,36.50
2022-11-17T18:21:49.973Z,35.33
2022-11-17T18:24:18.263Z,33.75
2022-11-17T18:26:46.767Z,36.33
2022-11-17T18:29:18.571Z,30.75
2022-11-17T18:31:49.767Z,32.50
2022-11-17T18:34:23.685Z,32.50
2022-11-17T18:36:58.226Z,33.75
2022-11-17T18:39:31.540Z,33.25
2022-11-17T18:42:01.932Z,34.75
2022-11-17T18:44:31.113Z,33.67
2022-11-17T18:47:02.989Z,34.75
2022-11-17T18:49:32.088Z,34.00
2022-11-17T18:52:00.848Z,32.25
2022-11-17T18:54:29.231Z,34.50
2022-11-17T18:56:58.124Z,34.00
2022-11-17T18:59:27.012Z,33.50
2022-11-17T19:01:55.767Z,31.00
2022-11-17T19:04:24.188Z,33.50
2022-11-17T19:06:53.065Z,35.50
2022-11-17T19:09:22.102Z,34.50
2022-11-17T19:11:50.898Z,34.25
2022-11-17T19:14:19.272Z,32.75
2022-11-17T19:16:50.961Z,33.00
2022-11-17T19:19:20.205Z,35.00
2022-11-17T19:21:49.237Z,33.50
2022-11-17T19:24:17.621Z,35.25
2022-11-17T19:26:47.619Z,31.75
2022-11-17T19:29:17.451Z,33.67
2022-11-17T19:31:47.890Z,33.33
2022-11-17T19:34:16.720Z,39.50
2022-11-17T19:36:48.057Z,36.50
2022-11-17T19:39:17.224Z,45.00
2022-11-17T19:41:47.901Z,42.33
2022-11-17T19:44:16.431Z,42.00
2022-11-17T19:46:45.142Z,42.75
2022-11-17T19:49:14.294Z,41.50
2022-11-17T19:51:43.276Z,42.00
2022-11-17T19:54:13.695Z,42.67
2022-11-17T19:56:42.442Z,42.00
2022-11-17T19:59:15.594Z,42.25
2022-11-17T20:01:46.393Z,40.00
2022-11-17T20:04:16.540Z,43.00
2022-11-17T20:06:46.389Z,40.00
2022-11-17T20:09:15.818Z,43.67
2022-11-17T20:11:44.803Z,41.00
2022-11-17T20:14:14.721Z,44.25
2022-11-17T20:16:43.548Z,40.33
2022-11-17T20:19:12.541Z,38.25
2022-11-17T20:21:42.482Z,40.75
2022-11-17T20:24:11.012Z,41.25
2022-11-17T20:26:42.487Z,38.33
2022-11-17T20:29:10.960Z,41.25
2022-11-17T20:31:41.648Z,44.25
2022-11-17T20:34:12.280Z,39.00
2022-11-17T20:36:41.006Z,41.50
2022-11-17T20:39:09.498Z,39.00
2022-11-17T20:41:39.285Z,39.00
2022-11-17T20:44:24.206Z,40.00
2022-11-17T20:46:55.215Z,41.00
2022-11-17T20:49:24.797Z,37.00
2022-11-17T20:52:13.033Z,40.75
2022-11-17T20:54:43.678Z,40.00
2022-11-17T20:57:13.854Z,40.25
2022-11-17T20:59:43.518Z,41.50
2022-11-17T21:02:12.323Z,40.00
2022-11-17T21:04:42.389Z,36.50
2022-11-17T21:07:11.014Z,34.75
2022-11-17T21:09:39.762Z,38.00
2022-11-17T21:12:08.367Z,40.50
2022-11-17T21:14:37.179Z,39.00
2022-11-17T21:17:25.669Z,38.00
2022-11-17T21:19:54.479Z,37.50
2022-11-17T21:22:22.941Z,36.50
2022-11-17T21:24:51.730Z,39.00
2022-11-17T21:27:20.289Z,36.50
2022-11-17T21:29:49.082Z,38.00
2022-11-17T21:32:17.499Z,35.33
2022-11-17T21:34:49.786Z,35.00
2022-11-17T21:37:18.909Z,34.50
2022-11-17T21:39:49.598Z,37.00
2022-11-17T21:42:18.004Z,37.50
2022-11-17T21:44:47.422Z,37.25
2022-11-17T21:47:16.127Z,37.50
2022-11-17T21:49:44.920Z,36.25
2022-11-17T21:52:13.429Z,34.75
2022-11-17T21:54:42.582Z,37.25
2022-11-17T21:57:10.998Z,33.25
2022-11-17T21:59:40.634Z,35.00
2022-11-17T22:02:10.418Z,39.50
2022-11-17T22:04:40.482Z,35.00
2022-11-17T22:07:08.900Z,37.00
2022-11-17T22:09:37.688Z,37.00
2022-11-17T22:12:06.320Z,36.25
2022-11-17T22:14:35.298Z,36.67
2022-11-17T22:17:03.788Z,37.50
2022-11-17T22:19:33.959Z,37.75
2022-11-17T22:22:02.319Z,35.00
2022-11-17T22:24:31.079Z,35.75
2022-11-17T22:26:59.567Z,30.75
2022-11-17T22:29:28.420Z,35.67
2022-11-17T22:31:56.684Z,33.00
2022-11-17T22:34:25.321Z,36.00
2022-11-17T22:36:53.546Z,34.75
2022-11-17T22:39:22.247Z,37.00
2022-11-17T22:41:50.402Z,37.50
2022-11-17T22:44:20.332Z,33.50
2022-11-17T22:46:48.544Z,38.00
2022-11-17T22:49:17.313Z,35.00
2022-11-17T22:52:04.192Z,39.00
2022-11-17T22:54:32.991Z,38.75
2022-11-17T22:57:02.454Z,36.25
2022-11-17T22:59:31.066Z,39.00
2022-11-17T23:01:59.381Z,34.75
2022-11-17T23:04:29.401Z,35.33
2022-11-17T23:06:57.592Z,33.50
2022-11-17T23:09:26.146Z,34.00
2022-11-17T23:11:54.487Z,32.75
2022-11-17T23:14:24.011Z,34.50
2022-11-17T23:16:52.203Z,35.75
2022-11-17T23:19:21.039Z,36.25
2022-11-17T23:21:49.502Z,33.67
2022-11-17T23:24:18.081Z,34.00
2022-11-17T23:26:46.782Z,35.00
2022-11-17T23:29:15.615Z,33.50
2022-11-17T23:31:44.620Z,37.25
2022-11-17T23:34:14.397Z,33.75
2022-11-17T23:36:42.550Z,35.25
2022-11-17T23:39:11.201Z,31.75
2022-11-17T23:41:39.382Z,34.50
2022-11-17T23:44:07.873Z,37.25
2022-11-17T23:46:36.177Z,34.25
2022-11-17T23:49:04.880Z,34.75
2022-11-17T23:51:33.322Z,33.50
2022-11-17T23:54:03.174Z,31.33
2022-11-17T23:56:34.684Z,34.33
2022-11-17T23:59:03.778Z,33.75
